sensor_id;sensor_type;location;lat;lon;timestamp;temperature;humidity
4759;DHT22;2393;50.560;12.636;2023-02-28T00:00:26;-5.10;99.90
4759;DHT22;2393;50.560;12.636;2023-02-28T00:02:54;-5.10;99.90
4759;DHT22;2393;50.560;12.636;2023-02-28T00:05:23;-5.10;99.90
4759;DHT22;2393;50.560;12.636;2023-02-28T00:07:52;-5.00;99.90
4759;DHT22;2393;50.560;12.636;2023-02-28T00:10:22;-5.00;99.90
4759;DHT22;2393;50.560;12.636;2023-02-28T00:12:52;-5.10;99.90
4759;DHT22;2393;50.560;12.636;2023-02-28T00:15:22;-5.00;99.90
4759;DHT22;2393;50.560;12.636;2023-02-28T00:17:51;-5.10;99.90
4759;DHT22;2393;50.560;12.636;2023-02-28T00:20:19;-5.10;99.90
4759;DHT22;2393;50.560;12.636;2023-02-28T00:22:50;-5.10;99.90
4759;DHT22;2393;50.560;12.636;2023-02-28T00:25:20;-5.10;99.90
4759;DHT22;2393;50.560;12.636;2023-02-28T00:27:49;-5.10;99.90
4759;DHT22;2393;50.560;12.636;2023-02-28T00:30:19;-5.10;99.90
4759;DHT22;2393;50.560;12.636;2023-02-28T00:32:49;-5.10;99.90
4759;DHT22;2393;50.560;12.636;2023-02-28T00:35:17;-5.10;99.90
4759;DHT22;2393;50.560;12.636;2023-02-28T00:37:45;-5.10;99.90
4759;DHT22;2393;50.560;12.636;2023-02-28T00:40:15;-5.10;99.90
4759;DHT22;2393;50.560;12.636;2023-02-28T00:43:12;-5.10;99.90
4759;DHT22;2393;50.560;12.636;2023-02-28T00:45:40;-5.10;99.90
4759;DHT22;2393;50.560;12.636;2023-02-28T00:48:09;-5.10;99.90
4759;DHT22;2393;50.560;12.636;2023-02-28T00:50:38;-5.10;99.90
4759;DHT22;2393;50.560;12.636;2023-02-28T00:53:06;-5.00;99.90
4759;DHT22;2393;50.560;12.636;2023-02-28T00:55:34;-5.00;99.90
4759;DHT22;2393;50.560;12.636;2023-02-28T00:58:03;-4.90;99.90
4759;DHT22;2393;50.560;12.636;2023-02-28T01:00:31;-4.90;99.90
4759;DHT22;2393;50.560;12.636;2023-02-28T01:02:59;-4.80;99.90
4759;DHT22;2393;50.560;12.636;2023-02-28T01:05:29;-4.80;99.90
4759;DHT22;2393;50.560;12.636;2023-02-28T01:07:57;-4.80;99.90
4759;DHT22;2393;50.560;12.636;2023-02-28T01:10:25;-4.80;99.90
4759;DHT22;2393;50.560;12.636;2023-02-28T01:12:57;-4.70;99.90
4759;DHT22;2393;50.560;12.636;2023-02-28T01:15:25;-4.70;99.90
4759;DHT22;2393;50.560;12.636;2023-02-28T01:17:54;-4.70;99.90
4759;DHT22;2393;50.560;12.636;2023-02-28T01:20:22;-4.70;99.90
4759;DHT22;2393;50.560;12.636;2023-02-28T01:22:51;-4.70;99.90
4759;DHT22;2393;50.560;12.636;2023-02-28T01:25:19;-4.60;99.90
4759;DHT22;2393;50.560;12.636;2023-02-28T01:27:47;-4.60;99.90
4759;DHT22;2393;50.560;12.636;2023-02-28T01:30:16;-4.60;99.90
4759;DHT22;2393;50.560;12.636;2023-02-28T01:32:46;-4.60;99.90
4759;DHT22;2393;50.560;12.636;2023-02-28T01:35:14;-4.60;99.90
4759;DHT22;2393;50.560;12.636;2023-02-28T01:37:43;-4.60;99.90
4759;DHT22;2393;50.560;12.636;2023-02-28T01:40:14;-4.60;99.90
4759;DHT22;2393;50.560;12.636;2023-02-28T01:42:42;-4.70;99.90
4759;DHT22;2393;50.560;12.636;2023-02-28T01:45:22;-4.70;99.90
4759;DHT22;2393;50.560;12.636;2023-02-28T01:47:53;-4.80;99.90
4759;DHT22;2393;50.560;12.636;2023-02-28T01:50:27;-4.80;99.90
4759;DHT22;2393;50.560;12.636;2023-02-28T01:53:00;-4.90;99.90
4759;DHT22;2393;50.560;12.636;2023-02-28T01:55:32;-4.90;99.90
4759;DHT22;2393;50.560;12.636;2023-02-28T01:58:02;-4.90;99.90
4759;DHT22;2393;50.560;12.636;2023-02-28T02:00:32;-5.00;99.90
4759;DHT22;2393;50.560;12.636;2023-02-28T02:03:06;-5.00;99.90
4759;DHT22;2393;50.560;12.636;2023-02-28T02:05:37;-5.00;99.90
4759;DHT22;2393;50.560;12.636;2023-02-28T02:08:08;-5.00;99.90
4759;DHT22;2393;50.560;12.636;2023-02-28T02:10:42;-5.10;99.90
4759;DHT22;2393;50.560;12.636;2023-02-28T02:13:29;-5.10;99.90
4759;DHT22;2393;50.560;12.636;2023-02-28T02:16:07;-5.10;99.90
4759;DHT22;2393;50.560;12.636;2023-02-28T02:18:46;-5.20;99.90
4759;DHT22;2393;50.560;12.636;2023-02-28T02:21:28;-5.20;99.90
4759;DHT22;2393;50.560;12.636;2023-02-28T02:24:36;-5.20;99.90
4759;DHT22;2393;50.560;12.636;2023-02-28T02:27:23;-5.10;99.90
4759;DHT22;2393;50.560;12.636;2023-02-28T02:30:32;-5.10;99.90
4759;DHT22;2393;50.560;12.636;2023-02-28T02:36:03;-5.00;99.90
4759;DHT22;2393;50.560;12.636;2023-02-28T02:38:36;-5.00;99.90
4759;DHT22;2393;50.560;12.636;2023-02-28T02:41:11;-4.90;99.90
4759;DHT22;2393;50.560;12.636;2023-02-28T02:43:46;-4.90;99.90
4759;DHT22;2393;50.560;12.636;2023-02-28T02:46:20;-4.80;99.90
4759;DHT22;2393;50.560;12.636;2023-02-28T02:48:50;-4.80;99.90
4759;DHT22;2393;50.560;12.636;2023-02-28T02:51:22;-4.80;99.90
4759;DHT22;2393;50.560;12.636;2023-02-28T02:53:54;-4.70;99.90
4759;DHT22;2393;50.560;12.636;2023-02-28T02:56:26;-4.70;99.90
4759;DHT22;2393;50.560;12.636;2023-02-28T03:03:05;-4.60;99.90
4759;DHT22;2393;50.560;12.636;2023-02-28T03:05:41;-4.60;99.90
4759;DHT22;2393;50.560;12.636;2023-02-28T03:08:11;-4.70;99.90
4759;DHT22;2393;50.560;12.636;2023-02-28T03:10:40;-4.70;99.90
4759;DHT22;2393;50.560;12.636;2023-02-28T03:13:26;-4.70;99.90
4759;DHT22;2393;50.560;12.636;2023-02-28T03:16:10;-4.70;99.90
4759;DHT22;2393;50.560;12.636;2023-02-28T03:18:53;-4.60;99.90
4759;DHT22;2393;50.560;12.636;2023-02-28T03:21:28;-4.60;99.90
4759;DHT22;2393;50.560;12.636;2023-02-28T03:24:04;-4.70;99.90
4759;DHT22;2393;50.560;12.636;2023-02-28T03:26:39;-4.70;99.90
4759;DHT22;2393;50.560;12.636;2023-02-28T03:29:15;-4.70;99.90
4759;DHT22;2393;50.560;12.636;2023-02-28T03:31:49;-4.80;99.90
4759;DHT22;2393;50.560;12.636;2023-02-28T03:34:23;-4.80;99.90
4759;DHT22;2393;50.560;12.636;2023-02-28T03:36:55;-4.80;99.90
4759;DHT22;2393;50.560;12.636;2023-02-28T03:39:30;-4.80;99.90
4759;DHT22;2393;50.560;12.636;2023-02-28T03:42:05;-4.80;99.90
4759;DHT22;2393;50.560;12.636;2023-02-28T03:44:38;-4.80;99.90
4759;DHT22;2393;50.560;12.636;2023-02-28T03:47:09;-4.80;99.90
4759;DHT22;2393;50.560;12.636;2023-02-28T03:49:42;-4.80;99.90
4759;DHT22;2393;50.560;12.636;2023-02-28T03:52:17;-4.80;99.90
4759;DHT22;2393;50.560;12.636;2023-02-28T03:54:51;-4.80;99.90
4759;DHT22;2393;50.560;12.636;2023-02-28T03:57:26;-4.80;99.90
4759;DHT22;2393;50.560;12.636;2023-02-28T03:59:58;-4.80;99.90
4759;DHT22;2393;50.560;12.636;2023-02-28T04:02:27;-4.80;99.90
4759;DHT22;2393;50.560;12.636;2023-02-28T04:04:55;-4.80;99.90
4759;DHT22;2393;50.560;12.636;2023-02-28T04:07:24;-4.80;99.90
4759;DHT22;2393;50.560;12.636;2023-02-28T04:09:53;-4.70;99.90
4759;DHT22;2393;50.560;12.636;2023-02-28T04:12:21;-4.70;99.90
4759;DHT22;2393;50.560;12.636;2023-02-28T04:14:50;-4.80;99.90
4759;DHT22;2393;50.560;12.636;2023-02-28T04:17:18;-4.80;99.90
4759;DHT22;2393;50.560;12.636;2023-02-28T04:19:46;-4.80;99.90
4759;DHT22;2393;50.560;12.636;2023-02-28T04:22:14;-4.90;99.90
4759;DHT22;2393;50.560;12.636;2023-02-28T04:24:44;-4.80;99.90
4759;DHT22;2393;50.560;12.636;2023-02-28T04:27:13;-4.80;99.90
4759;DHT22;2393;50.560;12.636;2023-02-28T04:29:42;-4.80;99.90
4759;DHT22;2393;50.560;12.636;2023-02-28T04:35:30;-4.70;99.90
4759;DHT22;2393;50.560;12.636;2023-02-28T04:37:58;-4.70;99.90
4759;DHT22;2393;50.560;12.636;2023-02-28T04:40:26;-4.70;99.90
4759;DHT22;2393;50.560;12.636;2023-02-28T04:42:56;-4.70;99.90
4759;DHT22;2393;50.560;12.636;2023-02-28T04:45:24;-4.70;99.90
4759;DHT22;2393;50.560;12.636;2023-02-28T04:47:52;-4.70;99.90
4759;DHT22;2393;50.560;12.636;2023-02-28T04:50:20;-4.60;99.90
4759;DHT22;2393;50.560;12.636;2023-02-28T04:52:48;-4.60;99.90
4759;DHT22;2393;50.560;12.636;2023-02-28T04:55:16;-4.60;99.90
4759;DHT22;2393;50.560;12.636;2023-02-28T04:57:44;-4.60;99.90
4759;DHT22;2393;50.560;12.636;2023-02-28T05:00:14;-4.50;99.90
4759;DHT22;2393;50.560;12.636;2023-02-28T05:02:43;-4.50;99.90
4759;DHT22;2393;50.560;12.636;2023-02-28T05:05:11;-4.50;99.90
4759;DHT22;2393;50.560;12.636;2023-02-28T05:07:44;-4.50;99.90
4759;DHT22;2393;50.560;12.636;2023-02-28T05:10:13;-4.50;99.90
4759;DHT22;2393;50.560;12.636;2023-02-28T05:12:40;-4.50;99.90
4759;DHT22;2393;50.560;12.636;2023-02-28T05:15:14;-4.60;99.90
4759;DHT22;2393;50.560;12.636;2023-02-28T05:17:42;-4.60;99.90
4759;DHT22;2393;50.560;12.636;2023-02-28T05:20:11;-4.60;99.90
4759;DHT22;2393;50.560;12.636;2023-02-28T05:22:42;-4.70;99.90
4759;DHT22;2393;50.560;12.636;2023-02-28T05:25:13;-4.80;99.90
4759;DHT22;2393;50.560;12.636;2023-02-28T05:27:43;-4.80;99.90
4759;DHT22;2393;50.560;12.636;2023-02-28T05:30:11;-4.90;99.90
4759;DHT22;2393;50.560;12.636;2023-02-28T05:32:41;-5.00;99.90
4759;DHT22;2393;50.560;12.636;2023-02-28T05:35:11;-5.00;99.90
4759;DHT22;2393;50.560;12.636;2023-02-28T05:37:39;-5.10;99.90
4759;DHT22;2393;50.560;12.636;2023-02-28T05:40:08;-5.10;99.90
4759;DHT22;2393;50.560;12.636;2023-02-28T05:42:37;-5.30;99.90
4759;DHT22;2393;50.560;12.636;2023-02-28T05:45:06;-5.30;99.90
4759;DHT22;2393;50.560;12.636;2023-02-28T05:50:57;-5.50;99.90
4759;DHT22;2393;50.560;12.636;2023-02-28T05:53:25;-5.60;99.90
4759;DHT22;2393;50.560;12.636;2023-02-28T05:55:53;-5.70;99.90
4759;DHT22;2393;50.560;12.636;2023-02-28T05:58:21;-5.90;99.90
4759;DHT22;2393;50.560;12.636;2023-02-28T06:00:50;-6.00;99.90
4759;DHT22;2393;50.560;12.636;2023-02-28T06:03:17;-6.10;99.90
4759;DHT22;2393;50.560;12.636;2023-02-28T06:05:45;-6.20;99.90
4759;DHT22;2393;50.560;12.636;2023-02-28T06:08:15;-6.20;99.90
4759;DHT22;2393;50.560;12.636;2023-02-28T06:10:43;-6.30;99.90
4759;DHT22;2393;50.560;12.636;2023-02-28T06:13:11;-6.40;99.90
4759;DHT22;2393;50.560;12.636;2023-02-28T06:15:39;-6.50;99.90
4759;DHT22;2393;50.560;12.636;2023-02-28T06:18:07;-6.50;99.90
4759;DHT22;2393;50.560;12.636;2023-02-28T06:20:35;-6.60;99.90
4759;DHT22;2393;50.560;12.636;2023-02-28T06:23:03;-6.60;99.90
4759;DHT22;2393;50.560;12.636;2023-02-28T06:25:33;-6.60;99.90
4759;DHT22;2393;50.560;12.636;2023-02-28T06:32:03;-6.60;99.90
4759;DHT22;2393;50.560;12.636;2023-02-28T06:34:31;-5.80;99.90
4759;DHT22;2393;50.560;12.636;2023-02-28T06:37:00;-5.20;99.90
4759;DHT22;2393;50.560;12.636;2023-02-28T06:39:29;-4.60;99.90
4759;DHT22;2393;50.560;12.636;2023-02-28T06:41:58;-4.20;99.90
4759;DHT22;2393;50.560;12.636;2023-02-28T06:44:26;-3.80;99.90
4759;DHT22;2393;50.560;12.636;2023-02-28T06:47:02;-3.50;99.90
4759;DHT22;2393;50.560;12.636;2023-02-28T06:49:32;-3.00;99.90
4759;DHT22;2393;50.560;12.636;2023-02-28T06:52:00;-2.60;99.90
4759;DHT22;2393;50.560;12.636;2023-02-28T06:54:28;-2.00;99.90
4759;DHT22;2393;50.560;12.636;2023-02-28T06:56:58;-1.50;99.90
4759;DHT22;2393;50.560;12.636;2023-02-28T06:59:26;-0.60;99.90
4759;DHT22;2393;50.560;12.636;2023-02-28T07:05:24;1.20;99.90
4759;DHT22;2393;50.560;12.636;2023-02-28T07:07:56;1.40;99.90
4759;DHT22;2393;50.560;12.636;2023-02-28T07:10:24;1.70;99.90
4759;DHT22;2393;50.560;12.636;2023-02-28T07:12:53;2.30;99.90
4759;DHT22;2393;50.560;12.636;2023-02-28T07:15:21;2.90;99.60
4759;DHT22;2393;50.560;12.636;2023-02-28T07:17:49;3.60;98.90
4759;DHT22;2393;50.560;12.636;2023-02-28T07:20:17;4.20;97.90
4759;DHT22;2393;50.560;12.636;2023-02-28T07:22:45;4.40;96.80
4759;DHT22;2393;50.560;12.636;2023-02-28T07:25:14;4.50;96.30
4759;DHT22;2393;50.560;12.636;2023-02-28T07:27:46;4.60;96.00
4759;DHT22;2393;50.560;12.636;2023-02-28T07:30:16;4.60;95.40
4759;DHT22;2393;50.560;12.636;2023-02-28T07:37:17;5.80;96.20
4759;DHT22;2393;50.560;12.636;2023-02-28T07:39:45;7.40;95.30
4759;DHT22;2393;50.560;12.636;2023-02-28T07:42:13;8.10;94.40
4759;DHT22;2393;50.560;12.636;2023-02-28T07:44:41;8.70;93.40
4759;DHT22;2393;50.560;12.636;2023-02-28T07:47:10;9.40;92.80
4759;DHT22;2393;50.560;12.636;2023-02-28T07:49:39;9.90;91.70
4759;DHT22;2393;50.560;12.636;2023-02-28T07:52:07;10.50;90.20
4759;DHT22;2393;50.560;12.636;2023-02-28T07:59:28;11.60;88.00
4759;DHT22;2393;50.560;12.636;2023-02-28T08:01:58;12.10;82.60
4759;DHT22;2393;50.560;12.636;2023-02-28T08:04:27;12.30;82.00
4759;DHT22;2393;50.560;12.636;2023-02-28T08:06:55;12.50;81.30
4759;DHT22;2393;50.560;12.636;2023-02-28T08:09:23;12.70;80.70
4759;DHT22;2393;50.560;12.636;2023-02-28T08:11:51;12.70;79.10
4759;DHT22;2393;50.560;12.636;2023-02-28T08:19:17;12.10;78.10
4759;DHT22;2393;50.560;12.636;2023-02-28T08:21:46;11.40;79.00
4759;DHT22;2393;50.560;12.636;2023-02-28T08:24:14;10.50;81.40
4759;DHT22;2393;50.560;12.636;2023-02-28T08:26:42;9.70;82.40
4759;DHT22;2393;50.560;12.636;2023-02-28T08:29:11;9.50;82.60
4759;DHT22;2393;50.560;12.636;2023-02-28T08:31:39;8.80;84.30
4759;DHT22;2393;50.560;12.636;2023-02-28T08:34:07;8.00;84.50
4759;DHT22;2393;50.560;12.636;2023-02-28T08:36:35;7.30;86.00
4759;DHT22;2393;50.560;12.636;2023-02-28T08:39:05;6.70;87.40
4759;DHT22;2393;50.560;12.636;2023-02-28T08:41:33;5.90;90.20
4759;DHT22;2393;50.560;12.636;2023-02-28T08:44:01;5.30;90.60
4759;DHT22;2393;50.560;12.636;2023-02-28T08:46:29;4.60;91.90
4759;DHT22;2393;50.560;12.636;2023-02-28T08:48:57;4.40;91.80
4759;DHT22;2393;50.560;12.636;2023-02-28T08:51:28;5.00;92.90
4759;DHT22;2393;50.560;12.636;2023-02-28T08:53:58;5.10;91.60
4759;DHT22;2393;50.560;12.636;2023-02-28T08:56:28;4.50;92.80
4759;DHT22;2393;50.560;12.636;2023-02-28T08:58:57;4.40;92.60
4759;DHT22;2393;50.560;12.636;2023-02-28T09:01:27;4.60;93.20
4759;DHT22;2393;50.560;12.636;2023-02-28T09:03:56;5.00;93.40
4759;DHT22;2393;50.560;12.636;2023-02-28T09:06:26;5.30;93.00
4759;DHT22;2393;50.560;12.636;2023-02-28T09:08:57;5.40;93.10
4759;DHT22;2393;50.560;12.636;2023-02-28T09:11:27;5.10;92.80
4759;DHT22;2393;50.560;12.636;2023-02-28T09:13:55;4.80;93.10
4759;DHT22;2393;50.560;12.636;2023-02-28T09:16:23;4.80;92.90
4759;DHT22;2393;50.560;12.636;2023-02-28T09:18:51;4.80;93.20
4759;DHT22;2393;50.560;12.636;2023-02-28T09:21:19;4.10;93.50
4759;DHT22;2393;50.560;12.636;2023-02-28T09:23:49;4.20;94.50
4759;DHT22;2393;50.560;12.636;2023-02-28T09:26:19;4.50;95.00
4759;DHT22;2393;50.560;12.636;2023-02-28T09:28:51;4.40;93.60
4759;DHT22;2393;50.560;12.636;2023-02-28T09:31:21;3.90;94.00
4759;DHT22;2393;50.560;12.636;2023-02-28T09:33:50;3.90;93.90
4759;DHT22;2393;50.560;12.636;2023-02-28T09:36:20;4.00;94.90
4759;DHT22;2393;50.560;12.636;2023-02-28T09:38:50;4.00;94.40
4759;DHT22;2393;50.560;12.636;2023-02-28T09:41:22;4.30;94.60
4759;DHT22;2393;50.560;12.636;2023-02-28T09:43:53;4.60;94.70
4759;DHT22;2393;50.560;12.636;2023-02-28T09:46:29;5.10;94.00
4759;DHT22;2393;50.560;12.636;2023-02-28T09:49:00;5.00;93.30
4759;DHT22;2393;50.560;12.636;2023-02-28T09:51:49;5.10;93.10
4759;DHT22;2393;50.560;12.636;2023-02-28T09:54:20;4.30;93.50
4759;DHT22;2393;50.560;12.636;2023-02-28T09:56:50;4.30;95.00
4759;DHT22;2393;50.560;12.636;2023-02-28T09:59:31;4.50;94.70
4759;DHT22;2393;50.560;12.636;2023-02-28T10:02:13;5.00;94.80
4759;DHT22;2393;50.560;12.636;2023-02-28T10:04:47;5.50;94.10
4759;DHT22;2393;50.560;12.636;2023-02-28T10:07:37;5.80;93.60
4759;DHT22;2393;50.560;12.636;2023-02-28T10:10:19;6.00;92.80
4759;DHT22;2393;50.560;12.636;2023-02-28T10:12:51;6.00;92.60
4759;DHT22;2393;50.560;12.636;2023-02-28T10:15:25;5.70;93.00
4759;DHT22;2393;50.560;12.636;2023-02-28T10:17:57;5.20;92.30
4759;DHT22;2393;50.560;12.636;2023-02-28T10:20:38;4.70;94.00
4759;DHT22;2393;50.560;12.636;2023-02-28T10:23:13;4.30;95.30
4759;DHT22;2393;50.560;12.636;2023-02-28T10:25:47;4.30;94.30
4759;DHT22;2393;50.560;12.636;2023-02-28T10:28:20;4.30;95.20
4759;DHT22;2393;50.560;12.636;2023-02-28T10:31:00;4.10;93.10
4759;DHT22;2393;50.560;12.636;2023-02-28T10:33:30;4.20;95.50
4759;DHT22;2393;50.560;12.636;2023-02-28T10:35:59;4.70;96.00
4759;DHT22;2393;50.560;12.636;2023-02-28T10:38:31;5.20;95.80
4759;DHT22;2393;50.560;12.636;2023-02-28T10:41:04;5.90;95.40
4759;DHT22;2393;50.560;12.636;2023-02-28T10:43:33;5.70;92.80
4759;DHT22;2393;50.560;12.636;2023-02-28T10:46:05;5.70;93.80
4759;DHT22;2393;50.560;12.636;2023-02-28T10:48:40;5.90;93.40
4759;DHT22;2393;50.560;12.636;2023-02-28T10:51:11;5.90;94.50
4759;DHT22;2393;50.560;12.636;2023-02-28T10:53:47;6.20;93.30
4759;DHT22;2393;50.560;12.636;2023-02-28T10:56:27;6.30;92.90
4759;DHT22;2393;50.560;12.636;2023-02-28T10:58:59;6.20;92.10
4759;DHT22;2393;50.560;12.636;2023-02-28T11:01:40;5.00;92.50
4759;DHT22;2393;50.560;12.636;2023-02-28T11:04:34;4.50;93.80
4759;DHT22;2393;50.560;12.636;2023-02-28T11:07:06;4.50;95.00
4759;DHT22;2393;50.560;12.636;2023-02-28T11:09:46;4.70;94.40
4759;DHT22;2393;50.560;12.636;2023-02-28T11:12:26;4.30;93.80
4759;DHT22;2393;50.560;12.636;2023-02-28T11:14:58;4.20;95.90
4759;DHT22;2393;50.560;12.636;2023-02-28T11:17:30;4.40;95.70
4759;DHT22;2393;50.560;12.636;2023-02-28T11:20:01;4.40;95.60
4759;DHT22;2393;50.560;12.636;2023-02-28T11:22:32;4.70;95.30
4759;DHT22;2393;50.560;12.636;2023-02-28T11:25:07;4.90;94.40
4759;DHT22;2393;50.560;12.636;2023-02-28T11:27:44;4.80;94.40
4759;DHT22;2393;50.560;12.636;2023-02-28T11:30:25;4.80;94.80
4759;DHT22;2393;50.560;12.636;2023-02-28T11:32:55;4.60;94.10
4759;DHT22;2393;50.560;12.636;2023-02-28T11:35:26;4.60;94.60
4759;DHT22;2393;50.560;12.636;2023-02-28T11:37:57;4.60;95.40
4759;DHT22;2393;50.560;12.636;2023-02-28T11:40:31;5.30;95.30
4759;DHT22;2393;50.560;12.636;2023-02-28T11:43:09;5.60;94.80
4759;DHT22;2393;50.560;12.636;2023-02-28T11:45:51;5.10;93.10
4759;DHT22;2393;50.560;12.636;2023-02-28T11:48:27;5.30;94.30
4759;DHT22;2393;50.560;12.636;2023-02-28T11:51:08;4.80;93.70
4759;DHT22;2393;50.560;12.636;2023-02-28T11:56:46;4.20;95.80
4759;DHT22;2393;50.560;12.636;2023-02-28T12:02:23;4.50;95.70
4759;DHT22;2393;50.560;12.636;2023-02-28T12:05:04;4.80;95.20
4759;DHT22;2393;50.560;12.636;2023-02-28T12:07:43;5.10;95.60
4759;DHT22;2393;50.560;12.636;2023-02-28T12:10:21;5.50;94.90
4759;DHT22;2393;50.560;12.636;2023-02-28T12:13:01;5.20;94.80
4759;DHT22;2393;50.560;12.636;2023-02-28T12:15:42;5.10;94.90
4759;DHT22;2393;50.560;12.636;2023-02-28T12:18:46;5.00;96.00
4759;DHT22;2393;50.560;12.636;2023-02-28T12:21:25;5.00;95.50
4759;DHT22;2393;50.560;12.636;2023-02-28T12:24:06;5.50;96.00
4759;DHT22;2393;50.560;12.636;2023-02-28T12:26:40;5.20;94.30
4759;DHT22;2393;50.560;12.636;2023-02-28T12:29:15;5.30;95.40
4759;DHT22;2393;50.560;12.636;2023-02-28T12:31:49;5.50;94.80
4759;DHT22;2393;50.560;12.636;2023-02-28T12:34:20;5.60;95.60
4759;DHT22;2393;50.560;12.636;2023-02-28T12:36:52;5.70;95.60
4759;DHT22;2393;50.560;12.636;2023-02-28T12:39:25;5.30;94.30
4759;DHT22;2393;50.560;12.636;2023-02-28T12:41:58;5.30;95.50
4759;DHT22;2393;50.560;12.636;2023-02-28T12:44:33;5.30;95.50
4759;DHT22;2393;50.560;12.636;2023-02-28T12:47:04;4.90;95.40
4759;DHT22;2393;50.560;12.636;2023-02-28T12:49:36;5.00;96.00
4759;DHT22;2393;50.560;12.636;2023-02-28T12:52:08;5.10;95.50
4759;DHT22;2393;50.560;12.636;2023-02-28T12:54:46;4.90;95.20
4759;DHT22;2393;50.560;12.636;2023-02-28T12:57:24;4.80;96.10
4759;DHT22;2393;50.560;12.636;2023-02-28T12:59:57;5.10;96.00
4759;DHT22;2393;50.560;12.636;2023-02-28T13:05:36;5.60;95.60
4759;DHT22;2393;50.560;12.636;2023-02-28T13:08:35;5.60;96.00
4759;DHT22;2393;50.560;12.636;2023-02-28T13:11:23;5.00;94.50
4759;DHT22;2393;50.560;12.636;2023-02-28T13:13:58;4.70;96.10
4759;DHT22;2393;50.560;12.636;2023-02-28T13:16:26;4.60;96.80
4759;DHT22;2393;50.560;12.636;2023-02-28T13:19:08;4.60;96.00
4759;DHT22;2393;50.560;12.636;2023-02-28T13:21:43;4.60;97.20
4759;DHT22;2393;50.560;12.636;2023-02-28T13:24:37;4.60;96.80
4759;DHT22;2393;50.560;12.636;2023-02-28T13:27:34;5.00;96.90
4759;DHT22;2393;50.560;12.636;2023-02-28T13:33:21;5.40;95.80
4759;DHT22;2393;50.560;12.636;2023-02-28T13:36:07;5.20;95.90
4759;DHT22;2393;50.560;12.636;2023-02-28T13:38:38;4.90;96.20
4759;DHT22;2393;50.560;12.636;2023-02-28T13:44:11;4.90;96.20
4759;DHT22;2393;50.560;12.636;2023-02-28T13:47:18;4.70;96.50
4759;DHT22;2393;50.560;12.636;2023-02-28T13:49:47;4.50;97.20
4759;DHT22;2393;50.560;12.636;2023-02-28T13:52:20;4.70;96.90
4759;DHT22;2393;50.560;12.636;2023-02-28T13:55:17;5.00;97.20
4759;DHT22;2393;50.560;12.636;2023-02-28T13:58:09;4.60;96.20
4759;DHT22;2393;50.560;12.636;2023-02-28T14:03:45;4.40;97.00
4759;DHT22;2393;50.560;12.636;2023-02-28T14:06:24;4.50;97.80
4759;DHT22;2393;50.560;12.636;2023-02-28T14:08:58;4.70;97.40
4759;DHT22;2393;50.560;12.636;2023-02-28T14:11:30;4.70;97.50
4759;DHT22;2393;50.560;12.636;2023-02-28T14:13:59;4.70;97.60
4759;DHT22;2393;50.560;12.636;2023-02-28T14:16:37;4.50;96.80
4759;DHT22;2393;50.560;12.636;2023-02-28T14:19:12;4.50;97.00
4759;DHT22;2393;50.560;12.636;2023-02-28T14:21:51;4.30;97.30
4759;DHT22;2393;50.560;12.636;2023-02-28T14:24:39;4.30;97.80
4759;DHT22;2393;50.560;12.636;2023-02-28T14:27:35;4.40;98.80
4759;DHT22;2393;50.560;12.636;2023-02-28T14:30:19;4.30;97.70
4759;DHT22;2393;50.560;12.636;2023-02-28T14:33:04;4.20;99.10
4759;DHT22;2393;50.560;12.636;2023-02-28T14:35:44;4.50;99.20
4759;DHT22;2393;50.560;12.636;2023-02-28T14:38:19;4.80;99.90
4759;DHT22;2393;50.560;12.636;2023-02-28T14:40:51;4.70;99.90
4759;DHT22;2393;50.560;12.636;2023-02-28T14:43:22;4.90;99.90
4759;DHT22;2393;50.560;12.636;2023-02-28T14:45:53;4.90;99.90
4759;DHT22;2393;50.560;12.636;2023-02-28T14:48:24;5.00;99.90
4759;DHT22;2393;50.560;12.636;2023-02-28T14:50:56;5.10;99.90
4759;DHT22;2393;50.560;12.636;2023-02-28T14:53:27;5.30;99.90
4759;DHT22;2393;50.560;12.636;2023-02-28T14:55:56;5.40;99.90
4759;DHT22;2393;50.560;12.636;2023-02-28T14:58:26;5.50;99.90
4759;DHT22;2393;50.560;12.636;2023-02-28T15:00:56;5.30;99.90
4759;DHT22;2393;50.560;12.636;2023-02-28T15:03:31;5.40;99.90
4759;DHT22;2393;50.560;12.636;2023-02-28T15:06:00;5.50;99.90
4759;DHT22;2393;50.560;12.636;2023-02-28T15:08:29;5.60;99.90
4759;DHT22;2393;50.560;12.636;2023-02-28T15:11:04;5.60;99.90
4759;DHT22;2393;50.560;12.636;2023-02-28T15:13:36;5.60;99.90
4759;DHT22;2393;50.560;12.636;2023-02-28T15:16:11;5.60;99.90
4759;DHT22;2393;50.560;12.636;2023-02-28T15:18:46;5.50;99.90
4759;DHT22;2393;50.560;12.636;2023-02-28T15:21:17;5.30;99.90
4759;DHT22;2393;50.560;12.636;2023-02-28T15:23:48;4.90;99.90
4759;DHT22;2393;50.560;12.636;2023-02-28T15:26:21;4.80;99.90
4759;DHT22;2393;50.560;12.636;2023-02-28T15:28:52;4.70;99.90
4759;DHT22;2393;50.560;12.636;2023-02-28T15:31:26;4.20;99.90
4759;DHT22;2393;50.560;12.636;2023-02-28T15:33:57;4.10;99.90
4759;DHT22;2393;50.560;12.636;2023-02-28T15:36:28;3.50;99.90
4759;DHT22;2393;50.560;12.636;2023-02-28T15:38:57;3.40;99.90
4759;DHT22;2393;50.560;12.636;2023-02-28T15:41:41;3.20;99.90
4759;DHT22;2393;50.560;12.636;2023-02-28T15:44:24;2.80;99.90
4759;DHT22;2393;50.560;12.636;2023-02-28T15:46:57;2.40;99.90
4759;DHT22;2393;50.560;12.636;2023-02-28T15:49:28;2.20;99.90
4759;DHT22;2393;50.560;12.636;2023-02-28T15:52:03;2.10;99.90
4759;DHT22;2393;50.560;12.636;2023-02-28T15:54:33;2.00;99.90
4759;DHT22;2393;50.560;12.636;2023-02-28T15:57:04;1.80;99.90
4759;DHT22;2393;50.560;12.636;2023-02-28T15:59:36;1.70;99.90
4759;DHT22;2393;50.560;12.636;2023-02-28T16:02:16;1.50;99.90
4759;DHT22;2393;50.560;12.636;2023-02-28T16:04:58;1.40;99.90
4759;DHT22;2393;50.560;12.636;2023-02-28T16:07:27;1.40;99.90
4759;DHT22;2393;50.560;12.636;2023-02-28T16:09:57;1.30;99.90
4759;DHT22;2393;50.560;12.636;2023-02-28T16:12:27;1.20;99.90
4759;DHT22;2393;50.560;12.636;2023-02-28T16:14:59;1.20;99.90
4759;DHT22;2393;50.560;12.636;2023-02-28T16:17:33;1.00;99.90
4759;DHT22;2393;50.560;12.636;2023-02-28T16:20:13;0.90;99.90
4759;DHT22;2393;50.560;12.636;2023-02-28T16:22:41;0.90;99.90
4759;DHT22;2393;50.560;12.636;2023-02-28T16:25:11;0.90;99.90
4759;DHT22;2393;50.560;12.636;2023-02-28T16:27:42;0.80;99.90
4759;DHT22;2393;50.560;12.636;2023-02-28T16:30:18;0.80;99.90
4759;DHT22;2393;50.560;12.636;2023-02-28T16:32:48;0.80;99.90
4759;DHT22;2393;50.560;12.636;2023-02-28T16:35:21;0.70;99.90
4759;DHT22;2393;50.560;12.636;2023-02-28T16:37:50;0.60;99.90
4759;DHT22;2393;50.560;12.636;2023-02-28T16:40:22;0.60;99.90
4759;DHT22;2393;50.560;12.636;2023-02-28T16:42:52;0.50;99.90
4759;DHT22;2393;50.560;12.636;2023-02-28T16:45:22;0.60;99.90
4759;DHT22;2393;50.560;12.636;2023-02-28T16:47:52;0.50;99.90
4759;DHT22;2393;50.560;12.636;2023-02-28T16:50:23;0.50;99.90
4759;DHT22;2393;50.560;12.636;2023-02-28T16:52:51;0.50;99.90
4759;DHT22;2393;50.560;12.636;2023-02-28T16:55:21;0.40;99.90
4759;DHT22;2393;50.560;12.636;2023-02-28T16:57:51;0.40;99.90
4759;DHT22;2393;50.560;12.636;2023-02-28T17:00:22;0.30;99.90
4759;DHT22;2393;50.560;12.636;2023-02-28T17:02:51;0.20;99.90
4759;DHT22;2393;50.560;12.636;2023-02-28T17:05:21;0.30;99.90
4759;DHT22;2393;50.560;12.636;2023-02-28T17:07:50;0.30;99.90
4759;DHT22;2393;50.560;12.636;2023-02-28T17:10:19;0.20;99.90
4759;DHT22;2393;50.560;12.636;2023-02-28T17:12:48;0.10;99.90
4759;DHT22;2393;50.560;12.636;2023-02-28T17:15:17;0.00;99.90
4759;DHT22;2393;50.560;12.636;2023-02-28T17:17:47;0.00;99.90
4759;DHT22;2393;50.560;12.636;2023-02-28T17:20:17;0.00;99.90
4759;DHT22;2393;50.560;12.636;2023-02-28T17:22:47;0.00;99.90